sensor_id;sensor_type;location;lat;lon;timestamp;pressure;altitude;pressure_sealevel;temperature;humidity
49178;BME280;35016;55.674;37.468;2023-03-23T00:02:24;98813.38;;;5.81;57.08
49178;BME280;35016;55.674;37.468;2023-03-23T00:04:50;98815.03;;;5.82;57.17
49178;BME280;35016;55.674;37.468;2023-03-23T00:07:16;98813.16;;;5.83;57.42
49178;BME280;35016;55.674;37.468;2023-03-23T00:09:49;98807.50;;;5.84;57.30
49178;BME280;35016;55.674;37.468;2023-03-23T00:12:23;98810.22;;;5.84;57.13
49178;BME280;35016;55.674;37.468;2023-03-23T00:15:02;98802.94;;;5.85;56.89
49178;BME280;35016;55.674;37.468;2023-03-23T00:17:29;98804.81;;;5.84;57.36
49178;BME280;35016;55.674;37.468;2023-03-23T00:19:55;98805.41;;;5.86;56.97
49178;BME280;35016;55.674;37.468;2023-03-23T00:22:21;98790.88;;;5.87;57.33
49178;BME280;35016;55.674;37.468;2023-03-23T00:24:47;98793.31;;;5.89;57.14
49178;BME280;35016;55.674;37.468;2023-03-23T00:27:16;98789.34;;;5.92;57.15
49178;BME280;35016;55.674;37.468;2023-03-23T00:29:41;98791.78;;;5.93;57.73
49178;BME280;35016;55.674;37.468;2023-03-23T00:32:09;98795.88;;;5.96;57.10
49178;BME280;35016;55.674;37.468;2023-03-23T00:34:41;98786.16;;;5.95;57.11
49178;BME280;35016;55.674;37.468;2023-03-23T00:37:08;98784.03;;;5.97;57.10
49178;BME280;35016;55.674;37.468;2023-03-23T00:39:35;98787.53;;;5.97;57.03
49178;BME280;35016;55.674;37.468;2023-03-23T00:42:04;98782.97;;;5.98;56.96
49178;BME280;35016;55.674;37.468;2023-03-23T00:44:30;98780.53;;;5.96;56.97
49178;BME280;35016;55.674;37.468;2023-03-23T00:46:57;98782.16;;;5.97;56.96
49178;BME280;35016;55.674;37.468;2023-03-23T00:49:23;98778.16;;;6.00;57.17
49178;BME280;35016;55.674;37.468;2023-03-23T00:51:51;98777.09;;;6.01;57.71
49178;BME280;35016;55.674;37.468;2023-03-23T00:54:17;98782.22;;;6.02;57.05
49178;BME280;35016;55.674;37.468;2023-03-23T00:56:43;98770.41;;;6.03;56.94
49178;BME280;35016;55.674;37.468;2023-03-23T00:59:09;98762.34;;;6.03;57.35
49178;BME280;35016;55.674;37.468;2023-03-23T01:01:35;98773.09;;;6.03;57.31
49178;BME280;35016;55.674;37.468;2023-03-23T01:04:01;98781.72;;;6.05;57.07
49178;BME280;35016;55.674;37.468;2023-03-23T01:06:33;98774.25;;;6.07;57.26
49178;BME280;35016;55.674;37.468;2023-03-23T01:09:02;98777.50;;;6.09;56.90
49178;BME280;35016;55.674;37.468;2023-03-23T01:11:28;98776.69;;;6.09;57.45
49178;BME280;35016;55.674;37.468;2023-03-23T01:13:54;98772.13;;;6.09;57.15
49178;BME280;35016;55.674;37.468;2023-03-23T01:16:20;98775.63;;;6.10;57.55
49178;BME280;35016;55.674;37.468;2023-03-23T01:18:46;98769.69;;;6.08;57.30
49178;BME280;35016;55.674;37.468;2023-03-23T01:21:13;98764.31;;;6.08;57.25
49178;BME280;35016;55.674;37.468;2023-03-23T01:23:40;98770.50;;;6.08;57.33
49178;BME280;35016;55.674;37.468;2023-03-23T01:26:06;98762.91;;;6.05;57.34
49178;BME280;35016;55.674;37.468;2023-03-23T01:28:33;98761.50;;;6.03;57.46
49178;BME280;35016;55.674;37.468;2023-03-23T01:31:09;98756.88;;;5.98;57.27
49178;BME280;35016;55.674;37.468;2023-03-23T01:33:38;98765.22;;;5.97;57.32
49178;BME280;35016;55.674;37.468;2023-03-23T01:36:09;98748.50;;;5.95;57.27
49178;BME280;35016;55.674;37.468;2023-03-23T01:38:36;98745.25;;;5.93;57.35
49178;BME280;35016;55.674;37.468;2023-03-23T01:41:03;98746.56;;;5.90;57.22
49178;BME280;35016;55.674;37.468;2023-03-23T01:43:29;98739.75;;;5.87;57.91
49178;BME280;35016;55.674;37.468;2023-03-23T01:45:55;98738.38;;;5.85;57.69
49178;BME280;35016;55.674;37.468;2023-03-23T01:48:28;98721.66;;;5.83;57.98
49178;BME280;35016;55.674;37.468;2023-03-23T01:50:56;98727.31;;;5.81;57.32
49178;BME280;35016;55.674;37.468;2023-03-23T01:53:26;98727.56;;;5.80;57.65
49178;BME280;35016;55.674;37.468;2023-03-23T01:55:52;98734.00;;;5.79;57.52
49178;BME280;35016;55.674;37.468;2023-03-23T01:58:20;98726.97;;;5.78;57.87
49178;BME280;35016;55.674;37.468;2023-03-23T02:00:47;98723.44;;;5.77;57.24
49178;BME280;35016;55.674;37.468;2023-03-23T02:03:14;98728.03;;;5.77;57.85
49178;BME280;35016;55.674;37.468;2023-03-23T02:05:41;98725.09;;;5.78;57.43
49178;BME280;35016;55.674;37.468;2023-03-23T02:08:16;98725.09;;;5.78;57.26
49178;BME280;35016;55.674;37.468;2023-03-23T02:13:36;98719.72;;;5.78;57.51
49178;BME280;35016;55.674;37.468;2023-03-23T02:31:43;98725.25;;;5.72;57.57
49178;BME280;35016;55.674;37.468;2023-03-23T02:39:07;98720.31;;;5.64;57.65
49178;BME280;35016;55.674;37.468;2023-03-23T02:41:43;98722.19;;;5.63;57.41
49178;BME280;35016;55.674;37.468;2023-03-23T02:44:11;98715.19;;;5.62;57.58
49178;BME280;35016;55.674;37.468;2023-03-23T02:46:39;98722.13;;;5.58;57.31
49178;BME280;35016;55.674;37.468;2023-03-23T02:49:07;98720.72;;;5.55;57.56
49178;BME280;35016;55.674;37.468;2023-03-23T02:51:34;98713.41;;;5.51;57.63
49178;BME280;35016;55.674;37.468;2023-03-23T02:54:01;98716.56;;;5.48;57.90
49178;BME280;35016;55.674;37.468;2023-03-23T02:56:27;98715.41;;;5.44;58.09
49178;BME280;35016;55.674;37.468;2023-03-23T02:58:56;98725.03;;;5.40;58.19
49178;BME280;35016;55.674;37.468;2023-03-23T03:03:51;98728.72;;;5.34;57.80
49178;BME280;35016;55.674;37.468;2023-03-23T03:06:39;98720.09;;;5.32;57.80
49178;BME280;35016;55.674;37.468;2023-03-23T03:09:11;98716.81;;;5.29;58.20
49178;BME280;35016;55.674;37.468;2023-03-23T03:11:41;98711.94;;;5.26;57.59
49178;BME280;35016;55.674;37.468;2023-03-23T03:14:10;98713.50;;;5.22;57.54
49178;BME280;35016;55.674;37.468;2023-03-23T03:17:06;98723.66;;;5.20;57.51
49178;BME280;35016;55.674;37.468;2023-03-23T03:19:31;98719.31;;;5.19;57.86
49178;BME280;35016;55.674;37.468;2023-03-23T03:21:59;98716.88;;;5.18;58.41
49178;BME280;35016;55.674;37.468;2023-03-23T03:24:39;98713.38;;;5.17;58.36
49178;BME280;35016;55.674;37.468;2023-03-23T03:27:10;98710.13;;;5.15;57.89
49178;BME280;35016;55.674;37.468;2023-03-23T03:29:43;98713.06;;;5.14;58.50
49178;BME280;35016;55.674;37.468;2023-03-23T03:32:12;98711.44;;;5.13;58.20
49178;BME280;35016;55.674;37.468;2023-03-23T03:34:40;98710.63;;;5.12;58.23
49178;BME280;35016;55.674;37.468;2023-03-23T03:37:07;98701.97;;;5.10;58.29
49178;BME280;35016;55.674;37.468;2023-03-23T03:39:34;98703.53;;;5.06;57.99
49178;BME280;35016;55.674;37.468;2023-03-23T03:45:19;98704.06;;;4.91;58.13
49178;BME280;35016;55.674;37.468;2023-03-23T03:47:46;98704.22;;;4.85;58.39
49178;BME280;35016;55.674;37.468;2023-03-23T03:50:15;98700.88;;;4.78;57.92
49178;BME280;35016;55.674;37.468;2023-03-23T03:52:42;98697.53;;;4.71;58.07
49178;BME280;35016;55.674;37.468;2023-03-23T03:55:08;98701.78;;;4.66;57.76
49178;BME280;35016;55.674;37.468;2023-03-23T03:57:38;98694.41;;;4.62;58.55
49178;BME280;35016;55.674;37.468;2023-03-23T04:00:19;98688.47;;;4.60;58.58
49178;BME280;35016;55.674;37.468;2023-03-23T04:02:48;98695.38;;;4.56;58.39
49178;BME280;35016;55.674;37.468;2023-03-23T04:05:33;98699.38;;;4.53;57.91
49178;BME280;35016;55.674;37.468;2023-03-23T04:07:59;98703.34;;;4.51;58.01
49178;BME280;35016;55.674;37.468;2023-03-23T04:10:30;98689.34;;;4.49;58.38
49178;BME280;35016;55.674;37.468;2023-03-23T04:12:57;98688.88;;;4.52;58.21
49178;BME280;35016;55.674;37.468;2023-03-23T04:15:56;98696.69;;;4.53;57.99
49178;BME280;35016;55.674;37.468;2023-03-23T04:18:22;98684.63;;;4.56;58.08
49178;BME280;35016;55.674;37.468;2023-03-23T04:20:49;98679.59;;;4.59;57.92
49178;BME280;35016;55.674;37.468;2023-03-23T04:23:19;98674.81;;;4.61;58.09
49178;BME280;35016;55.674;37.468;2023-03-23T04:25:52;98669.22;;;4.63;57.88
49178;BME280;35016;55.674;37.468;2023-03-23T04:28:31;98682.41;;;4.64;58.16
49178;BME280;35016;55.674;37.468;2023-03-23T04:31:28;98676.53;;;4.68;58.31
49178;BME280;35016;55.674;37.468;2023-03-23T04:34:03;98679.56;;;4.71;57.77
49178;BME280;35016;55.674;37.468;2023-03-23T04:39:32;98679.41;;;4.78;58.35
49178;BME280;35016;55.674;37.468;2023-03-23T04:42:07;98675.91;;;4.77;58.35
49178;BME280;35016;55.674;37.468;2023-03-23T04:44:57;98679.97;;;4.80;58.08
49178;BME280;35016;55.674;37.468;2023-03-23T04:47:38;98679.25;;;4.84;58.32
49178;BME280;35016;55.674;37.468;2023-03-23T04:50:37;98680.13;;;4.90;57.91
49178;BME280;35016;55.674;37.468;2023-03-23T04:53:16;98685.88;;;4.93;58.22
49178;BME280;35016;55.674;37.468;2023-03-23T04:55:44;98678.94;;;4.97;58.23
49178;BME280;35016;55.674;37.468;2023-03-23T04:58:13;98674.47;;;5.03;57.95
49178;BME280;35016;55.674;37.468;2023-03-23T05:00:47;98678.28;;;5.07;58.34
49178;BME280;35016;55.674;37.468;2023-03-23T05:03:17;98670.88;;;5.14;57.90
49178;BME280;35016;55.674;37.468;2023-03-23T05:05:44;98676.94;;;5.21;57.78
49178;BME280;35016;55.674;37.468;2023-03-23T05:08:13;98681.31;;;5.27;58.45
49178;BME280;35016;55.674;37.468;2023-03-23T05:10:40;98683.00;;;5.34;58.40
49178;BME280;35016;55.674;37.468;2023-03-23T05:13:10;98689.84;;;5.41;57.75
49178;BME280;35016;55.674;37.468;2023-03-23T05:15:37;98694.00;;;5.49;58.38
49178;BME280;35016;55.674;37.468;2023-03-23T05:18:04;98686.28;;;5.52;57.75
49178;BME280;35016;55.674;37.468;2023-03-23T05:20:32;98696.28;;;5.57;57.73
49178;BME280;35016;55.674;37.468;2023-03-23T05:23:05;98679.41;;;5.62;58.33
49178;BME280;35016;55.674;37.468;2023-03-23T05:25:35;98686.47;;;5.68;57.89
49178;BME280;35016;55.674;37.468;2023-03-23T05:28:08;98690.59;;;5.75;58.46
49178;BME280;35016;55.674;37.468;2023-03-23T05:31:06;98690.75;;;5.85;58.34
49178;BME280;35016;55.674;37.468;2023-03-23T05:33:32;98685.22;;;5.92;58.29
49178;BME280;35016;55.674;37.468;2023-03-23T05:36:09;98686.66;;;6.00;57.93
49178;BME280;35016;55.674;37.468;2023-03-23T05:38:53;98685.44;;;6.07;57.94
49178;BME280;35016;55.674;37.468;2023-03-23T05:41:19;98688.19;;;6.12;58.13
49178;BME280;35016;55.674;37.468;2023-03-23T05:43:48;98682.88;;;6.17;57.70
49178;BME280;35016;55.674;37.468;2023-03-23T05:46:20;98700.13;;;6.21;57.92
49178;BME280;35016;55.674;37.468;2023-03-23T05:48:47;98690.75;;;6.24;58.17
49178;BME280;35016;55.674;37.468;2023-03-23T05:51:16;98692.94;;;6.27;57.86
49178;BME280;35016;55.674;37.468;2023-03-23T05:53:43;98686.22;;;6.30;57.96
49178;BME280;35016;55.674;37.468;2023-03-23T05:56:11;98690.28;;;6.32;57.98
49178;BME280;35016;55.674;37.468;2023-03-23T05:58:58;98688.75;;;6.36;57.87
49178;BME280;35016;55.674;37.468;2023-03-23T06:01:26;98700.38;;;6.42;57.72
49178;BME280;35016;55.674;37.468;2023-03-23T06:03:53;98685.09;;;6.47;58.21
49178;BME280;35016;55.674;37.468;2023-03-23T06:06:26;98687.03;;;6.52;57.75
49178;BME280;35016;55.674;37.468;2023-03-23T06:09:04;98682.25;;;6.59;57.79
49178;BME280;35016;55.674;37.468;2023-03-23T06:12:05;98680.50;;;6.70;57.80
49178;BME280;35016;55.674;37.468;2023-03-23T06:14:44;98677.31;;;6.78;58.06
49178;BME280;35016;55.674;37.468;2023-03-23T06:17:14;98669.28;;;6.83;58.06
49178;BME280;35016;55.674;37.468;2023-03-23T06:19:40;98673.13;;;6.92;58.08
49178;BME280;35016;55.674;37.468;2023-03-23T06:22:12;98683.22;;;7.02;57.51
49178;BME280;35016;55.674;37.468;2023-03-23T06:24:57;98687.88;;;7.11;57.50
49178;BME280;35016;55.674;37.468;2023-03-23T06:27:30;98678.75;;;7.18;57.18
49178;BME280;35016;55.674;37.468;2023-03-23T06:29:57;98686.66;;;7.24;57.83
49178;BME280;35016;55.674;37.468;2023-03-23T06:32:24;98679.66;;;7.28;57.69
49178;BME280;35016;55.674;37.468;2023-03-23T06:34:51;98678.63;;;7.34;57.72
49178;BME280;35016;55.674;37.468;2023-03-23T06:37:37;98672.44;;;7.39;57.44
49178;BME280;35016;55.674;37.468;2023-03-23T06:40:18;98674.38;;;7.43;57.40
49178;BME280;35016;55.674;37.468;2023-03-23T06:42:50;98674.13;;;7.50;57.48
49178;BME280;35016;55.674;37.468;2023-03-23T06:45:35;98663.97;;;7.57;57.72
49178;BME280;35016;55.674;37.468;2023-03-23T06:48:33;98664.00;;;7.67;57.83
49178;BME280;35016;55.674;37.468;2023-03-23T06:50:59;98675.38;;;7.74;57.53
49178;BME280;35016;55.674;37.468;2023-03-23T06:53:26;98669.78;;;7.81;57.62
49178;BME280;35016;55.674;37.468;2023-03-23T06:55:55;98659.53;;;7.88;57.41
49178;BME280;35016;55.674;37.468;2023-03-23T06:58:20;98660.38;;;7.94;57.32
49178;BME280;35016;55.674;37.468;2023-03-23T07:00:47;98660.38;;;7.99;57.29
49178;BME280;35016;55.674;37.468;2023-03-23T07:03:15;98666.06;;;8.02;57.18
49178;BME280;35016;55.674;37.468;2023-03-23T07:05:41;98666.34;;;8.06;57.18
49178;BME280;35016;55.674;37.468;2023-03-23T07:08:14;98669.09;;;8.11;57.31
49178;BME280;35016;55.674;37.468;2023-03-23T07:10:46;98662.38;;;8.19;57.41
49178;BME280;35016;55.674;37.468;2023-03-23T07:13:12;98664.81;;;8.25;57.26
49178;BME280;35016;55.674;37.468;2023-03-23T07:15:49;98666.47;;;8.31;57.41
49178;BME280;35016;55.674;37.468;2023-03-23T07:18:16;98649.78;;;8.40;57.18
49178;BME280;35016;55.674;37.468;2023-03-23T07:20:51;98653.84;;;8.47;56.93
49178;BME280;35016;55.674;37.468;2023-03-23T07:23:20;98663.88;;;8.52;57.01
49178;BME280;35016;55.674;37.468;2023-03-23T07:25:53;98655.75;;;8.57;57.01
49178;BME280;35016;55.674;37.468;2023-03-23T07:28:24;98661.19;;;8.67;57.01
49178;BME280;35016;55.674;37.468;2023-03-23T07:30:52;98666.63;;;8.77;56.94
49178;BME280;35016;55.674;37.468;2023-03-23T07:33:18;98653.09;;;8.87;56.86
49178;BME280;35016;55.674;37.468;2023-03-23T07:35:44;98652.03;;;8.93;56.95
49178;BME280;35016;55.674;37.468;2023-03-23T07:38:14;98660.44;;;9.02;56.57
49178;BME280;35016;55.674;37.468;2023-03-23T07:40:45;98654.75;;;9.09;56.76
49178;BME280;35016;55.674;37.468;2023-03-23T07:43:14;98652.03;;;9.14;56.60
49178;BME280;35016;55.674;37.468;2023-03-23T07:45:57;98632.81;;;9.20;56.47
49178;BME280;35016;55.674;37.468;2023-03-23T07:48:28;98639.59;;;9.23;56.26
49178;BME280;35016;55.674;37.468;2023-03-23T07:50:54;98660.41;;;9.22;56.15
49178;BME280;35016;55.674;37.468;2023-03-23T07:53:20;98636.88;;;9.23;56.09
49178;BME280;35016;55.674;37.468;2023-03-23T07:56:01;98623.91;;;9.20;55.62
49178;BME280;35016;55.674;37.468;2023-03-23T07:58:49;98614.72;;;9.16;55.79
49178;BME280;35016;55.674;37.468;2023-03-23T08:01:15;98617.41;;;9.16;56.56
49178;BME280;35016;55.674;37.468;2023-03-23T08:03:51;98622.81;;;9.21;56.00
49178;BME280;35016;55.674;37.468;2023-03-23T08:06:37;98621.19;;;9.25;56.40
49178;BME280;35016;55.674;37.468;2023-03-23T08:09:29;98620.66;;;9.33;55.82
49178;BME280;35016;55.674;37.468;2023-03-23T08:12:18;98617.13;;;9.38;55.44
49178;BME280;35016;55.674;37.468;2023-03-23T08:15:03;98625.78;;;9.40;55.20
49178;BME280;35016;55.674;37.468;2023-03-23T08:17:56;98625.25;;;9.43;55.54
49178;BME280;35016;55.674;37.468;2023-03-23T08:20:40;98619.25;;;9.51;55.52
49178;BME280;35016;55.674;37.468;2023-03-23T08:23:29;98610.88;;;9.57;55.74
49178;BME280;35016;55.674;37.468;2023-03-23T08:26:11;98616.00;;;9.64;55.20
49178;BME280;35016;55.674;37.468;2023-03-23T08:28:53;98617.56;;;9.75;55.07
49178;BME280;35016;55.674;37.468;2023-03-23T08:31:41;98599.69;;;9.84;55.27
49178;BME280;35016;55.674;37.468;2023-03-23T08:34:25;98599.41;;;9.91;55.22
49178;BME280;35016;55.674;37.468;2023-03-23T08:37:05;98606.38;;;10.02;54.79
49178;BME280;35016;55.674;37.468;2023-03-23T08:39:53;98597.38;;;10.12;55.37
49178;BME280;35016;55.674;37.468;2023-03-23T08:42:25;98583.84;;;10.17;54.70
49178;BME280;35016;55.674;37.468;2023-03-23T08:45:24;98581.38;;;10.26;55.02
49178;BME280;35016;55.674;37.468;2023-03-23T08:47:59;98585.91;;;10.35;54.62
49178;BME280;35016;55.674;37.468;2023-03-23T08:50:57;98570.72;;;10.44;55.07
49178;BME280;35016;55.674;37.468;2023-03-23T08:53:41;98559.00;;;10.49;54.78
49178;BME280;35016;55.674;37.468;2023-03-23T08:56:26;98567.44;;;10.47;54.57
49178;BME280;35016;55.674;37.468;2023-03-23T08:59:06;98556.59;;;10.47;54.52
49178;BME280;35016;55.674;37.468;2023-03-23T09:01:53;98561.16;;;10.52;54.62
49178;BME280;35016;55.674;37.468;2023-03-23T09:04:32;98551.03;;;10.63;54.84
49178;BME280;35016;55.674;37.468;2023-03-23T09:07:19;98549.03;;;10.78;54.69
49178;BME280;35016;55.674;37.468;2023-03-23T09:09:45;98528.03;;;10.89;54.31
49178;BME280;35016;55.674;37.468;2023-03-23T09:12:11;98548.03;;;10.98;53.93
49178;BME280;35016;55.674;37.468;2023-03-23T09:14:37;98544.78;;;11.01;54.14
49178;BME280;35016;55.674;37.468;2023-03-23T09:17:04;98538.47;;;11.06;54.25
49178;BME280;35016;55.674;37.468;2023-03-23T09:19:30;98541.94;;;11.11;54.38
49178;BME280;35016;55.674;37.468;2023-03-23T09:21:56;98533.47;;;11.18;53.60
49178;BME280;35016;55.674;37.468;2023-03-23T09:24:22;98525.28;;;11.23;53.70
49178;BME280;35016;55.674;37.468;2023-03-23T09:26:48;98516.81;;;11.30;53.98
49178;BME280;35016;55.674;37.468;2023-03-23T09:29:14;98520.03;;;11.32;53.57
49178;BME280;35016;55.674;37.468;2023-03-23T09:31:40;98529.75;;;11.38;54.13
49178;BME280;35016;55.674;37.468;2023-03-23T09:34:08;98520.44;;;11.44;53.83
49178;BME280;35016;55.674;37.468;2023-03-23T09:36:38;98512.75;;;11.51;53.87
49178;BME280;35016;55.674;37.468;2023-03-23T09:39:05;98501.25;;;11.59;53.57
49178;BME280;35016;55.674;37.468;2023-03-23T09:49:21;98489.97;;;11.71;53.48
49178;BME280;35016;55.674;37.468;2023-03-23T09:51:51;98487.72;;;11.78;53.66
49178;BME280;35016;55.674;37.468;2023-03-23T09:54:26;98482.75;;;11.85;53.60
49178;BME280;35016;55.674;37.468;2023-03-23T09:56:52;98484.81;;;11.93;53.69
49178;BME280;35016;55.674;37.468;2023-03-23T09:59:29;98482.53;;;12.00;53.33
49178;BME280;35016;55.674;37.468;2023-03-23T10:02:08;98474.81;;;12.07;53.55
49178;BME280;35016;55.674;37.468;2023-03-23T10:04:38;98478.00;;;12.15;53.60
49178;BME280;35016;55.674;37.468;2023-03-23T10:07:25;98474.63;;;12.23;53.46
49178;BME280;35016;55.674;37.468;2023-03-23T10:10:12;98475.53;;;12.32;53.36
49178;BME280;35016;55.674;37.468;2023-03-23T10:22:34;98464.97;;;12.63;52.62
49178;BME280;35016;55.674;37.468;2023-03-23T10:30:16;98453.94;;;12.73;52.55
49178;BME280;35016;55.674;37.468;2023-03-23T10:33:03;98454.66;;;12.79;52.48
49178;BME280;35016;55.674;37.468;2023-03-23T10:35:38;98452.13;;;12.82;49.64
49178;BME280;35016;55.674;37.468;2023-03-23T10:38:09;98444.38;;;12.89;52.26
49178;BME280;35016;55.674;37.468;2023-03-23T10:40:44;98451.34;;;12.95;52.28
49178;BME280;35016;55.674;37.468;2023-03-23T10:43:10;98455.81;;;13.05;52.30
49178;BME280;35016;55.674;37.468;2023-03-23T10:45:36;98449.34;;;13.15;51.87
49178;BME280;35016;55.674;37.468;2023-03-23T10:48:09;98455.44;;;13.25;52.03
49178;BME280;35016;55.674;37.468;2023-03-23T10:50:36;98451.72;;;13.35;51.40
49178;BME280;35016;55.674;37.468;2023-03-23T10:53:05;98458.88;;;13.45;51.73
49178;BME280;35016;55.674;37.468;2023-03-23T10:55:37;98468.84;;;13.49;51.73
49178;BME280;35016;55.674;37.468;2023-03-23T10:58:11;98449.16;;;13.52;51.39
49178;BME280;35016;55.674;37.468;2023-03-23T11:00:41;98460.88;;;13.53;51.17
49178;BME280;35016;55.674;37.468;2023-03-23T11:05:45;98450.78;;;13.67;51.50
49178;BME280;35016;55.674;37.468;2023-03-23T11:08:17;98451.16;;;13.74;51.28
49178;BME280;35016;55.674;37.468;2023-03-23T11:10:51;98451.84;;;13.80;50.04
49178;BME280;35016;55.674;37.468;2023-03-23T11:13:18;98444.59;;;13.89;51.00
49178;BME280;35016;55.674;37.468;2023-03-23T11:15:45;98451.59;;;14.04;51.15
49178;BME280;35016;55.674;37.468;2023-03-23T11:18:12;98454.88;;;14.14;50.87
49178;BME280;35016;55.674;37.468;2023-03-23T11:20:42;98438.31;;;14.24;51.20
49178;BME280;35016;55.674;37.468;2023-03-23T11:23:21;98445.28;;;14.39;50.19
49178;BME280;35016;55.674;37.468;2023-03-23T11:25:53;98438.41;;;14.42;50.39
49178;BME280;35016;55.674;37.468;2023-03-23T11:28:20;98448.16;;;14.34;49.44
49178;BME280;35016;55.674;37.468;2023-03-23T11:30:46;98446.16;;;14.26;49.69
49178;BME280;35016;55.674;37.468;2023-03-23T11:33:12;98444.69;;;14.20;50.46
49178;BME280;35016;55.674;37.468;2023-03-23T11:35:43;98460.75;;;14.21;49.16
49178;BME280;35016;55.674;37.468;2023-03-23T11:38:14;98454.97;;;14.23;49.91
49178;BME280;35016;55.674;37.468;2023-03-23T11:40:51;98454.56;;;14.16;47.68
49178;BME280;35016;55.674;37.468;2023-03-23T11:43:19;98441.56;;;14.13;49.59
49178;BME280;35016;55.674;37.468;2023-03-23T11:46:05;98468.25;;;14.02;50.22
49178;BME280;35016;55.674;37.468;2023-03-23T11:48:43;98458.78;;;13.86;49.68
49178;BME280;35016;55.674;37.468;2023-03-23T11:51:16;98452.28;;;13.73;50.11
49178;BME280;35016;55.674;37.468;2023-03-23T11:56:30;98456.53;;;13.66;50.63
49178;BME280;35016;55.674;37.468;2023-03-23T11:58:58;98453.88;;;13.74;50.47
49178;BME280;35016;55.674;37.468;2023-03-23T12:03:58;98452.22;;;14.01;50.48
49178;BME280;35016;55.674;37.468;2023-03-23T12:07:03;98449.56;;;14.09;50.47
49178;BME280;35016;55.674;37.468;2023-03-23T12:14:29;98438.31;;;14.24;50.25
49178;BME280;35016;55.674;37.468;2023-03-23T12:45:11;98397.50;;;14.42;50.04
49178;BME280;35016;55.674;37.468;2023-03-23T12:50:15;98415.16;;;14.00;50.11
49178;BME280;35016;55.674;37.468;2023-03-23T12:52:54;98411.06;;;13.88;48.92
49178;BME280;35016;55.674;37.468;2023-03-23T13:00:23;98411.91;;;13.75;50.54
49178;BME280;35016;55.674;37.468;2023-03-23T13:02:55;98395.06;;;13.73;50.33
49178;BME280;35016;55.674;37.468;2023-03-23T13:07:56;98395.88;;;13.74;50.38
49178;BME280;35016;55.674;37.468;2023-03-23T13:10:30;98402.81;;;13.80;50.43
49178;BME280;35016;55.674;37.468;2023-03-23T13:12:58;98399.06;;;13.89;50.29
49178;BME280;35016;55.674;37.468;2023-03-23T13:18:12;98393.53;;;14.03;50.08
49178;BME280;35016;55.674;37.468;2023-03-23T13:23:25;98385.19;;;14.22;50.20
49178;BME280;35016;55.674;37.468;2023-03-23T13:25:54;98395.59;;;14.20;50.17
49178;BME280;35016;55.674;37.468;2023-03-23T13:28:23;98377.56;;;14.10;50.38
49178;BME280;35016;55.674;37.468;2023-03-23T13:33:26;98381.00;;;13.80;50.46
49178;BME280;35016;55.674;37.468;2023-03-23T13:36:10;98373.81;;;13.61;50.57
49178;BME280;35016;55.674;37.468;2023-03-23T13:38:36;98390.47;;;13.46;50.54
49178;BME280;35016;55.674;37.468;2023-03-23T13:41:07;98381.03;;;13.30;50.31
49178;BME280;35016;55.674;37.468;2023-03-23T13:43:35;98378.00;;;13.18;50.71
49178;BME280;35016;55.674;37.468;2023-03-23T13:46:10;98384.13;;;13.10;51.01
49178;BME280;35016;55.674;37.468;2023-03-23T13:48:49;98385.66;;;13.02;50.96
49178;BME280;35016;55.674;37.468;2023-03-23T13:51:32;98376.56;;;12.93;50.75
49178;BME280;35016;55.674;37.468;2023-03-23T13:54:18;98384.13;;;12.82;50.58
49178;BME280;35016;55.674;37.468;2023-03-23T13:56:52;98380.19;;;12.75;50.81
49178;BME280;35016;55.674;37.468;2023-03-23T14:01:57;98372.81;;;12.61;50.60
49178;BME280;35016;55.674;37.468;2023-03-23T14:04:42;98371.78;;;12.57;50.64
49178;BME280;35016;55.674;37.468;2023-03-23T14:07:11;98359.91;;;12.53;50.68
49178;BME280;35016;55.674;37.468;2023-03-23T14:09:38;98364.63;;;12.48;50.83
49178;BME280;35016;55.674;37.468;2023-03-23T14:12:06;98363.09;;;12.41;50.73
49178;BME280;35016;55.674;37.468;2023-03-23T14:15:22;98351.50;;;12.36;50.63
49178;BME280;35016;55.674;37.468;2023-03-23T14:17:31;98356.22;;;12.30;50.95
49178;BME280;35016;55.674;37.468;2023-03-23T14:19:57;98351.41;;;12.27;50.97
49178;BME280;35016;55.674;37.468;2023-03-23T14:22:37;98345.97;;;12.27;50.97
49178;BME280;35016;55.674;37.468;2023-03-23T14:25:14;98348.69;;;12.27;50.53
49178;BME280;35016;55.674;37.468;2023-03-23T14:27:41;98341.53;;;12.31;50.96
49178;BME280;35016;55.674;37.468;2023-03-23T14:30:08;98340.13;;;12.34;50.74
49178;BME280;35016;55.674;37.468;2023-03-23T14:32:37;98337.41;;;12.34;50.74
49178;BME280;35016;55.674;37.468;2023-03-23T14:35:05;98331.69;;;12.35;50.81
49178;BME280;35016;55.674;37.468;2023-03-23T14:37:32;98326.75;;;12.37;50.49
49178;BME280;35016;55.674;37.468;2023-03-23T14:40:00;98323.22;;;12.37;50.45
49178;BME280;35016;55.674;37.468;2023-03-23T14:42:29;98324.41;;;12.31;50.16
49178;BME280;35016;55.674;37.468;2023-03-23T14:44:56;98339.22;;;12.25;50.32
49178;BME280;35016;55.674;37.468;2023-03-23T14:47:44;98339.59;;;12.18;50.39
49178;BME280;35016;55.674;37.468;2023-03-23T14:53:02;98329.06;;;11.98;51.15
49178;BME280;35016;55.674;37.468;2023-03-23T14:55:30;98319.59;;;11.95;51.18
49178;BME280;35016;55.674;37.468;2023-03-23T14:58:05;98318.81;;;11.95;51.14
49178;BME280;35016;55.674;37.468;2023-03-23T15:00:33;98326.44;;;11.93;50.71
49178;BME280;35016;55.674;37.468;2023-03-23T15:03:00;98320.28;;;11.87;51.05
49178;BME280;35016;55.674;37.468;2023-03-23T15:05:29;98331.50;;;11.81;50.76
49178;BME280;35016;55.674;37.468;2023-03-23T15:07:59;98330.25;;;11.73;51.04
49178;BME280;35016;55.674;37.468;2023-03-23T15:10:26;98318.44;;;11.64;51.20
49178;BME280;35016;55.674;37.468;2023-03-23T15:12:52;98318.03;;;11.57;50.96
49178;BME280;35016;55.674;37.468;2023-03-23T15:15:27;98326.00;;;11.48;51.39
49178;BME280;35016;55.674;37.468;2023-03-23T15:17:54;98325.06;;;11.39;51.55
49178;BME280;35016;55.674;37.468;2023-03-23T15:20:28;98321.41;;;11.30;51.44
49178;BME280;35016;55.674;37.468;2023-03-23T15:22:54;98313.38;;;11.20;51.57